Buoy 46611

sailwx.info

Track history (hours):
 
Tides and Currents Weather Stations Pressure Air Temp Water Temp Dewpoint Dewpoint Depression Visibility Wind Speed Wind Dir Waves Ship Positions

Drifting buoy 46611

Last reported at 2015-Jan-26 14:00 UTC. Time now 2015-Jan-26 16:30 UTC.
Position N 56°10' W 138°21'.

Barometer 1014.9 mb
Water temperature 7.0 ° C

Date/timePositionNaut miles runAvg speedWind from/ knotsBaromVisibWave heightAir tempDewpointWater temp
2015-Jan-26 14:00N 56°10' W 138°21'0 0.0 1014.9 7.0
2015-Jan-26 13:00N 56°10' W 138°21'0 0.0 1015.2 7.0
2015-Jan-26 12:00N 56°10' W 138°21'0 0.4 1015.2 7.0
2015-Jan-26 11:00N 56°10' W 138°21'1 0.3 1015.2 7.1
2015-Jan-26 06:00N 56°10' W 138°24'0 0.1 1013.8 7.1
2015-Jan-26 05:00N 56°10' W 138°24'1 0.5 1013.4 7.1
2015-Jan-26 03:00N 56°09' W 138°25'0 0.0 1012.7 7.1
2015-Jan-26 02:00N 56°09' W 138°25'0 0.4 1012.0 7.1
2015-Jan-26 01:00N 56°09' W 138°26'0 0.3 1011.5 7.1
2015-Jan-26 00:00N 56°09' W 138°26'0 0.4 1010.8 7.1
2015-Jan-25 23:00N 56°09' W 138°25'1 0.6 1010.5 7.1
2015-Jan-25 22:00N 56°10' W 138°25'0 0.2 1010.3 7.1
2015-Jan-25 21:00N 56°10' W 138°25'0 0.0 1009.5 7.1
2015-Jan-25 20:00N 56°10' W 138°25'0 0.2 1008.6 7.1
2015-Jan-25 19:00N 56°10' W 138°26'2 0.8 1007.6 7.1
2015-Jan-25 17:00N 56°11' W 138°28'1 1.2 1005.7 7.1
2015-Jan-25 16:00N 56°11' W 138°30'0 0.4 1004.5 7.1
2015-Jan-25 15:00N 56°10' W 138°30'0 0.1 1003.8 7.1
2015-Jan-25 14:00N 56°10' W 138°30'1 1.1 1003.1 7.2
2015-Jan-25 13:00N 56°09' W 138°31'1 1.1 1002.2 7.2
2015-Jan-25 12:00N 56°09' W 138°32'1 1.2 1001.4 7.2
2015-Jan-25 11:00N 56°09' W 138°30'2 0.6 1000.5 7.2
2015-Jan-25 07:00N 56°10' W 138°27'0 0.0 994.5 7.2
2015-Jan-25 06:00N 56°10' W 138°27'2 1.8 991.3 7.2
2015-Jan-25 05:00N 56°11' W 138°31'2 2.2 987.5 7.2
2015-Jan-25 04:00N 56°12' W 138°34'0 0.0 983.6 7.2
2015-Jan-25 03:00N 56°12' W 138°34'0 0.4 979.4 7.2
2015-Jan-25 02:00N 56°11' W 138°35'0 0.4 977.4 7.2
2015-Jan-25 01:00N 56°11' W 138°34'1 0.7 977.4 7.2
2015-Jan-25 00:00N 56°11' W 138°34'1 1.1 979.0 7.2
2015-Jan-24 23:00N 56°11' W 138°32'2 1.0 982.2 7.2
2015-Jan-24 21:00N 56°09' W 138°29'1 0.6 989.9 7.2
2015-Jan-24 20:00N 56°09' W 138°29'1 0.6 994.1 7.2
2015-Jan-24 19:00N 56°09' W 138°28'1 1.3 996.6 7.2
2015-Jan-24 18:00N 56°09' W 138°25'0 0.0 1000.6 7.1
2015-Jan-24 17:00N 56°09' W 138°25'1 0.4 1002.5 7.1
2015-Jan-24 15:00N 56°09' W 138°26'1 0.6 1005.2 7.1
2015-Jan-24 14:00N 56°09' W 138°27'1 1.0 1006.6 7.1
2015-Jan-24 13:00N 56°08' W 138°28'0 0.0 1007.8 7.1
2015-Jan-24 12:00N 56°08' W 138°28'2 2.3 1009.0 7.1
2015-Jan-24 11:00N 56°06' W 138°27'0 0.0 1009.6 7.1
2015-Jan-24 08:00N 56°06' W 138°27'0 0.0 1008.5 7.1
2015-Jan-24 07:00N 56°06' W 138°27'1 0.8 1008.0 7.1
2015-Jan-24 06:00N 56°06' W 138°29'0 0.0 1006.7 7.1
2015-Jan-24 05:00N 56°06' W 138°29'1 0.3 1005.5 7.1
2015-Jan-24 03:00N 56°06' W 138°28'1 1.0 1002.3 7.2
2015-Jan-24 02:00N 56°07' W 138°29'2 0.9 1000.9 7.2
2015-Jan-24 00:00N 56°07' W 138°32'3 2.9 996.8 7.2
2015-Jan-23 23:00N 56°05' W 138°37'0 0.0 994.8 7.2
2015-Jan-23 22:00N 56°05' W 138°37'3 1.1 993.5 7.2
2015-Jan-23 19:00N 56°03' W 138°40'2 0.8 991.3 7.1
2015-Jan-23 17:00N 56°01' W 138°39'0 0.3 991.6 7.1
2015-Jan-23 16:00N 56°01' W 138°38'1 0.7 991.9 7.1
2015-Jan-23 15:00N 56°02' W 138°37'0 0.4 992.6 7.1
2015-Jan-23 14:00N 56°01' W 138°38'1 1.0 994.1 7.1
2015-Jan-23 13:00N 56°02' W 138°39'1 0.5 995.9 7.1
2015-Jan-23 11:00N 56°01' W 138°39'3 0.6 998.8 7.1
2015-Jan-23 07:00N 55°59' W 138°40'1 1.4 1000.5 7.1
2015-Jan-23 06:00N 55°58' W 138°42'2 2.1 1000.6 7.1
2015-Jan-23 05:00N 55°58' W 138°38'0 0.0 999.2 7.1
2015-Jan-23 04:00N 55°58' W 138°38'0 0.0 997.8 7.1
2015-Jan-23 03:00N 55°58' W 138°38'1 1.0 996.5 7.1
2015-Jan-23 02:00N 55°59' W 138°39'0 0.0 995.3 7.1
2015-Jan-23 01:00N 55°59' W 138°39'0 0.0 994.1 7.1
2015-Jan-23 00:00N 55°59' W 138°39'2 1.7 993.0 7.1
2015-Jan-22 23:00N 55°58' W 138°42'0 0.0 992.2 7.1
2015-Jan-22 21:00N 55°58' W 138°42'2 2.0 994.8 7.1
2015-Jan-22 20:00N 55°56' W 138°44'0 0.1 995.8 7.1
2015-Jan-22 19:00N 55°56' W 138°44'0 0.0 996.7 7.1
2015-Jan-22 18:00N 55°56' W 138°44'2 2.2 997.1 7.1
2015-Jan-22 17:00N 55°54' W 138°43'0 0.3 997.7 7.1
2015-Jan-22 16:00N 55°54' W 138°43'1 1.3 997.9 7.1
2015-Jan-22 15:00N 55°53' W 138°41'0 0.1 998.2 7.1
2015-Jan-22 14:00N 55°54' W 138°41'0 0.2 998.8 7.1
2015-Jan-22 13:00N 55°54' W 138°41'1 0.6 999.2 7.1
2015-Jan-22 11:00N 55°53' W 138°43'0 0.0 999.4 7.1
2015-Jan-22 10:00N 55°53' W 138°43'1 0.4 998.8 7.1
2015-Jan-22 06:00N 55°52' W 138°45'1 0.8 995.6 7.1
2015-Jan-22 05:00N 55°52' W 138°45'0 0.0 994.7 7.1
2015-Jan-22 04:00N 55°52' W 138°45'0 0.0 993.6 7.1
2015-Jan-22 03:00N 55°52' W 138°45'1 0.9 992.4 7.1
2015-Jan-22 02:00N 55°52' W 138°43'1 1.4 991.3 7.1
2015-Jan-22 01:00N 55°51' W 138°46'0 0.2 989.8 7.2
2015-Jan-22 00:00N 55°51' W 138°45'1 0.8 988.3 7.2
2015-Jan-21 23:00N 55°51' W 138°47'1 0.4 986.9 7.2
2015-Jan-21 21:00N 55°51' W 138°48'2 1.6 983.4 7.1
2015-Jan-21 20:00N 55°51' W 138°51'0 0.1 982.8 7.1
2015-Jan-21 19:00N 55°51' W 138°50'1 1.3 983.3 7.1
2015-Jan-21 18:00N 55°49' W 138°49'1 0.5 984.1 7.1
2015-Jan-21 16:00N 55°48' W 138°48'0 0.0 986.5 7.1
2015-Jan-21 15:00N 55°48' W 138°49'1 0.3 988.1 7.1
2015-Jan-21 13:00N 55°48' W 138°49'0 0.0 990.8 7.1
2015-Jan-21 12:00N 55°48' W 138°49'2 1.6 991.7 7.1
2015-Jan-21 11:00N 55°47' W 138°49'0 0.0 991.8 7.1
2015-Jan-21 10:00N 55°47' W 138°49'0 0.1 992.2 7.1
2015-Jan-21 07:00N 55°47' W 138°49'0 0.0 992.5 7.1
2015-Jan-21 06:00N 55°47' W 138°49'0 0.2 992.8 7.1
2015-Jan-21 05:00N 55°47' W 138°49'1 0.4 992.9 7.1
2015-Jan-21 03:00N 55°46' W 138°48'0 0.0 994.0 7.1
2015-Jan-21 01:00N 55°46' W 138°48'0 0.2 994.9 7.1
2015-Jan-21 00:00N 55°46' W 138°48'0 0.3 995.9 7.1
2015-Jan-20 23:00N 55°46' W 138°48'0 0.3 997.1 7.1
2015-Jan-20 22:00N 55°46' W 138°48'1 0.6 998.4 7.1
2015-Jan-20 21:00N 55°46' W 138°47'1 0.8 999.2 7.1
2015-Jan-20 20:00N 55°45' W 138°46'2 0.9 999.8 7.1
2015-Jan-20 18:00N 55°44' W 138°49'1 1.3 1000.3 7.1
2015-Jan-20 17:00N 55°43' W 138°48'1 0.2 999.8 7.1
2015-Jan-20 13:00N 55°43' W 138°47'0 0.0 1001.2 7.1
2015-Jan-20 12:00N 55°43' W 138°47'2 0.9 1001.6 7.1
2015-Jan-20 10:00N 55°41' W 138°48'0 0.0 1002.2 7.1
2015-Jan-20 08:00N 55°41' W 138°48'3 2.6 1003.4 7.2
2015-Jan-20 07:00N 55°39' W 138°48'0 0.0 1004.3 7.2
2015-Jan-20 06:00N 55°39' W 138°48'0 0.0 1006.0 7.1
2015-Jan-20 05:00N 55°39' W 138°48'2 1.2 1008.1 7.1
2015-Jan-20 03:00N 55°38' W 138°44'0 0.0 1011.7 7.1
2015-Jan-20 02:00N 55°38' W 138°44'1 0.9 1013.1 7.1
2015-Jan-20 01:00N 55°38' W 138°45'1 1.1 1013.7 7.1
2015-Jan-20 00:00N 55°37' W 138°43'0 0.2 1014.5 7.1
2015-Jan-19 22:00N 55°38' W 138°43'1 0.6 1014.9 7.1
2015-Jan-19 21:00N 55°38' W 138°44'0 0.4 1015.0 7.1
2015-Jan-19 20:00N 55°38' W 138°43'2 1.6 1015.1 7.1
2015-Jan-19 19:00N 55°37' W 138°46'0 0.0 1014.5 7.1
2015-Jan-19 17:00N 55°38' W 138°46'1 0.3 1012.3 7.1
2015-Jan-19 15:00N 55°37' W 138°47'1 0.7 1010.9 7.1
2015-Jan-19 14:00N 55°37' W 138°46'3 1.4 1010.1 7.1
2015-Jan-19 12:00N 55°40' W 138°48'0 0.0 1007.8 7.2
2015-Jan-19 10:00N 55°40' W 138°48'0 0.0 1004.6 7.1
2015-Jan-19 09:00N 55°40' W 138°48'0 0.0 1002.7 7.2
2015-Jan-19 07:00N 55°40' W 138°48'0 0.3 999.0 7.1
2015-Jan-19 06:00N 55°39' W 138°49'1 1.0 996.7 7.1
2015-Jan-19 05:00N 55°40' W 138°49'1 1.0 994.9 7.1
2015-Jan-19 04:00N 55°40' W 138°51'1 1.2 993.5 7.1
2015-Jan-19 03:00N 55°40' W 138°49'1 1.2 992.0 7.2
2015-Jan-19 02:00N 55°41' W 138°50'0 0.4 990.4 7.1
2015-Jan-19 01:00N 55°40' W 138°51'0 0.0 988.9 7.2
2015-Jan-19 00:00N 55°40' W 138°51'1 0.4 987.7 7.2
2015-Jan-18 22:00N 55°40' W 138°50'1 1.4 987.8 7.2
2015-Jan-18 21:00N 55°39' W 138°47'1 0.8 988.0 7.2
2015-Jan-18 20:00N 55°40' W 138°46'0 0.1 987.9 7.2
2015-Jan-18 18:00N 55°40' W 138°46'0 0.0 987.4 7.2
2015-Jan-18 17:00N 55°40' W 138°46'0 0.3 986.9 7.2
2015-Jan-18 16:00N 55°40' W 138°46'0 0.2 986.7 7.2
2015-Jan-18 15:00N 55°40' W 138°47'1 0.6 986.6 7.2
2015-Jan-18 14:00N 55°39' W 138°46'1 0.6 986.7 7.2
2015-Jan-18 12:00N 55°38' W 138°45'0 0.0 988.6 7.2
2015-Jan-18 11:00N 55°38' W 138°45'3 2.6 989.4 7.2
2015-Jan-18 10:00N 55°38' W 138°41'0 0.0 990.0 7.2
2015-Jan-18 07:00N 55°38' W 138°41'0 0.0 992.8 7.2
2015-Jan-18 06:00N 55°38' W 138°41'1 1.0 993.9 7.2
2015-Jan-18 05:00N 55°38' W 138°39'1 0.8 994.8 7.2
2015-Jan-18 04:00N 55°38' W 138°38'1 1.2 995.5 7.2
2015-Jan-18 03:00N 55°38' W 138°36'1 1.4 996.2 7.2
2015-Jan-18 02:00N 55°39' W 138°38'1 0.3 996.5 7.2
2015-Jan-18 00:00N 55°39' W 138°38'1 0.5 997.1 7.2
2015-Jan-17 23:00N 55°39' W 138°38'0 0.3 996.9 7.2
2015-Jan-17 22:00N 55°39' W 138°39'0 0.1 996.9 7.2
2015-Jan-17 20:00N 55°39' W 138°38'1 0.6 996.3 7.2
2015-Jan-17 19:00N 55°39' W 138°37'0 0.3 995.9 7.2
2015-Jan-17 18:00N 55°39' W 138°37'0 0.0 995.1 7.2
2015-Jan-17 16:00N 55°39' W 138°37'1 0.6 994.0 7.2
2015-Jan-17 15:00N 55°39' W 138°37'0 0.5 993.4 7.2
2015-Jan-17 14:00N 55°40' W 138°37'1 0.5 992.8 7.2
2015-Jan-17 13:00N 55°39' W 138°37'1 0.6 992.7 7.2
2015-Jan-17 12:00N 55°39' W 138°38'0 0.4 992.4 7.2
2015-Jan-17 11:00N 55°39' W 138°38'1 0.2 992.0 7.2
2015-Jan-17 06:00N 55°38' W 138°39'0 0.0 988.4 7.2
2015-Jan-17 05:00N 55°38' W 138°39'1 1.0 987.9 7.2
2015-Jan-17 04:00N 55°37' W 138°38'1 1.0 988.3 7.1
2015-Jan-17 03:00N 55°36' W 138°39'0 0.0 989.3 7.1
2015-Jan-17 02:00N 55°36' W 138°39'1 0.5 990.7 7.1
2015-Jan-17 01:00N 55°36' W 138°38'1 1.1 991.4 7.1
2015-Jan-17 00:00N 55°35' W 138°38'1 0.3 992.4 7.1
2015-Jan-16 22:00N 55°36' W 138°39'2 1.5 994.4 7.1
2015-Jan-16 21:00N 55°34' W 138°38'1 0.8 995.0 7.1
2015-Jan-16 20:00N 55°34' W 138°39'0 0.3 995.4 7.1
2015-Jan-16 19:00N 55°34' W 138°39'0 0.0 995.3 7.1
2015-Jan-16 18:00N 55°34' W 138°39'1 1.4 995.3 7.1
2015-Jan-16 17:00N 55°32' W 138°39'0 0.1 995.0 7.2
2015-Jan-16 16:00N 55°32' W 138°39'0 0.2 995.3 7.2
2015-Jan-16 15:00N 55°32' W 138°39'1 0.6 995.9 7.2
2015-Jan-16 14:00N 55°32' W 138°38'   996.8 7.2
Track history (hours):
 
Tides and Currents Weather Stations Pressure Air Temp Water Temp Dewpoint Dewpoint Depression Visibility Wind Speed Wind Dir Waves Ship Positions

Drifting buoy 46611

Last reported at 2015-Jan-26 14:00 UTC. Time now 2015-Jan-26 16:30 UTC.
Position N 56°10' W 138°21'.

Barometer 1014.9 mb
Water temperature 7.0 ° C

Date/timePositionNaut miles runAvg speedWind from/ knotsBaromVisibWave heightAir tempDewpointWater temp
2015-Jan-26 14:00N 56°10' W 138°21'0 0.0 1014.9 7.0
2015-Jan-26 13:00N 56°10' W 138°21'0 0.0 1015.2 7.0
2015-Jan-26 12:00N 56°10' W 138°21'0 0.4 1015.2 7.0
2015-Jan-26 11:00N 56°10' W 138°21'1 0.3 1015.2 7.1
2015-Jan-26 06:00N 56°10' W 138°24'0 0.1 1013.8 7.1
2015-Jan-26 05:00N 56°10' W 138°24'1 0.5 1013.4 7.1
2015-Jan-26 03:00N 56°09' W 138°25'0 0.0 1012.7 7.1
2015-Jan-26 02:00N 56°09' W 138°25'0 0.4 1012.0 7.1
2015-Jan-26 01:00N 56°09' W 138°26'0 0.3 1011.5 7.1
2015-Jan-26 00:00N 56°09' W 138°26'0 0.4 1010.8 7.1
2015-Jan-25 23:00N 56°09' W 138°25'1 0.6 1010.5 7.1
2015-Jan-25 22:00N 56°10' W 138°25'0 0.2 1010.3 7.1
2015-Jan-25 21:00N 56°10' W 138°25'0 0.0 1009.5 7.1
2015-Jan-25 20:00N 56°10' W 138°25'0 0.2 1008.6 7.1
2015-Jan-25 19:00N 56°10' W 138°26'2 0.8 1007.6 7.1
2015-Jan-25 17:00N 56°11' W 138°28'1 1.2 1005.7 7.1
2015-Jan-25 16:00N 56°11' W 138°30'0 0.4 1004.5 7.1
2015-Jan-25 15:00N 56°10' W 138°30'0 0.1 1003.8 7.1
2015-Jan-25 14:00N 56°10' W 138°30'1 1.1 1003.1 7.2
2015-Jan-25 13:00N 56°09' W 138°31'1 1.1 1002.2 7.2
2015-Jan-25 12:00N 56°09' W 138°32'1 1.2 1001.4 7.2
2015-Jan-25 11:00N 56°09' W 138°30'2 0.6 1000.5 7.2
2015-Jan-25 07:00N 56°10' W 138°27'0 0.0 994.5 7.2
2015-Jan-25 06:00N 56°10' W 138°27'2 1.8 991.3 7.2
2015-Jan-25 05:00N 56°11' W 138°31'2 2.2 987.5 7.2
2015-Jan-25 04:00N 56°12' W 138°34'0 0.0 983.6 7.2
2015-Jan-25 03:00N 56°12' W 138°34'0 0.4 979.4 7.2
2015-Jan-25 02:00N 56°11' W 138°35'0 0.4 977.4 7.2
2015-Jan-25 01:00N 56°11' W 138°34'1 0.7 977.4 7.2
2015-Jan-25 00:00N 56°11' W 138°34'1 1.1 979.0 7.2
2015-Jan-24 23:00N 56°11' W 138°32'2 1.0 982.2 7.2
2015-Jan-24 21:00N 56°09' W 138°29'1 0.6 989.9 7.2
2015-Jan-24 20:00N 56°09' W 138°29'1 0.6 994.1 7.2
2015-Jan-24 19:00N 56°09' W 138°28'1 1.3 996.6 7.2
2015-Jan-24 18:00N 56°09' W 138°25'0 0.0 1000.6 7.1
2015-Jan-24 17:00N 56°09' W 138°25'1 0.4 1002.5 7.1
2015-Jan-24 15:00N 56°09' W 138°26'1 0.6 1005.2 7.1
2015-Jan-24 14:00N 56°09' W 138°27'1 1.0 1006.6 7.1
2015-Jan-24 13:00N 56°08' W 138°28'0 0.0 1007.8 7.1
2015-Jan-24 12:00N 56°08' W 138°28'2 2.3 1009.0 7.1
2015-Jan-24 11:00N 56°06' W 138°27'0 0.0 1009.6 7.1
2015-Jan-24 08:00N 56°06' W 138°27'0 0.0 1008.5 7.1
2015-Jan-24 07:00N 56°06' W 138°27'1 0.8 1008.0 7.1
2015-Jan-24 06:00N 56°06' W 138°29'0 0.0 1006.7 7.1
2015-Jan-24 05:00N 56°06' W 138°29'1 0.3 1005.5 7.1
2015-Jan-24 03:00N 56°06' W 138°28'1 1.0 1002.3 7.2
2015-Jan-24 02:00N 56°07' W 138°29'2 0.9 1000.9 7.2
2015-Jan-24 00:00N 56°07' W 138°32'3 2.9 996.8 7.2
2015-Jan-23 23:00N 56°05' W 138°37'0 0.0 994.8 7.2
2015-Jan-23 22:00N 56°05' W 138°37'3 1.1 993.5 7.2
2015-Jan-23 19:00N 56°03' W 138°40'2 0.8 991.3 7.1
2015-Jan-23 17:00N 56°01' W 138°39'0 0.3 991.6 7.1
2015-Jan-23 16:00N 56°01' W 138°38'1 0.7 991.9 7.1
2015-Jan-23 15:00N 56°02' W 138°37'0 0.4 992.6 7.1
2015-Jan-23 14:00N 56°01' W 138°38'1 1.0 994.1 7.1
2015-Jan-23 13:00N 56°02' W 138°39'1 0.5 995.9 7.1
2015-Jan-23 11:00N 56°01' W 138°39'3 0.6 998.8 7.1
2015-Jan-23 07:00N 55°59' W 138°40'1 1.4 1000.5 7.1
2015-Jan-23 06:00N 55°58' W 138°42'2 2.1 1000.6 7.1
2015-Jan-23 05:00N 55°58' W 138°38'0 0.0 999.2 7.1
2015-Jan-23 04:00N 55°58' W 138°38'0 0.0 997.8 7.1
2015-Jan-23 03:00N 55°58' W 138°38'1 1.0 996.5 7.1
2015-Jan-23 02:00N 55°59' W 138°39'0 0.0 995.3 7.1
2015-Jan-23 01:00N 55°59' W 138°39'0 0.0 994.1 7.1
2015-Jan-23 00:00N 55°59' W 138°39'2 1.7 993.0 7.1
2015-Jan-22 23:00N 55°58' W 138°42'0 0.0 992.2 7.1
2015-Jan-22 21:00N 55°58' W 138°42'2 2.0 994.8 7.1
2015-Jan-22 20:00N 55°56' W 138°44'0 0.1 995.8 7.1
2015-Jan-22 19:00N 55°56' W 138°44'0 0.0 996.7 7.1
2015-Jan-22 18:00N 55°56' W 138°44'2 2.2 997.1 7.1
2015-Jan-22 17:00N 55°54' W 138°43'0 0.3 997.7 7.1
2015-Jan-22 16:00N 55°54' W 138°43'1 1.3 997.9 7.1
2015-Jan-22 15:00N 55°53' W 138°41'0 0.1 998.2 7.1
2015-Jan-22 14:00N 55°54' W 138°41'0 0.2 998.8 7.1
2015-Jan-22 13:00N 55°54' W 138°41'1 0.6 999.2 7.1
2015-Jan-22 11:00N 55°53' W 138°43'0 0.0 999.4 7.1
2015-Jan-22 10:00N 55°53' W 138°43'1 0.4 998.8 7.1
2015-Jan-22 06:00N 55°52' W 138°45'1 0.8 995.6 7.1
2015-Jan-22 05:00N 55°52' W 138°45'0 0.0 994.7 7.1
2015-Jan-22 04:00N 55°52' W 138°45'0 0.0 993.6 7.1
2015-Jan-22 03:00N 55°52' W 138°45'1 0.9 992.4 7.1
2015-Jan-22 02:00N 55°52' W 138°43'1 1.4 991.3 7.1
2015-Jan-22 01:00N 55°51' W 138°46'0 0.2 989.8 7.2
2015-Jan-22 00:00N 55°51' W 138°45'1 0.8 988.3 7.2
2015-Jan-21 23:00N 55°51' W 138°47'1 0.4 986.9 7.2
2015-Jan-21 21:00N 55°51' W 138°48'2 1.6 983.4 7.1
2015-Jan-21 20:00N 55°51' W 138°51'0 0.1 982.8 7.1
2015-Jan-21 19:00N 55°51' W 138°50'1 1.3 983.3 7.1
2015-Jan-21 18:00N 55°49' W 138°49'1 0.5 984.1 7.1
2015-Jan-21 16:00N 55°48' W 138°48'0 0.0 986.5 7.1
2015-Jan-21 15:00N 55°48' W 138°49'1 0.3 988.1 7.1
2015-Jan-21 13:00N 55°48' W 138°49'0 0.0 990.8 7.1
2015-Jan-21 12:00N 55°48' W 138°49'2 1.6 991.7 7.1
2015-Jan-21 11:00N 55°47' W 138°49'0 0.0 991.8 7.1
2015-Jan-21 10:00N 55°47' W 138°49'0 0.1 992.2 7.1
2015-Jan-21 07:00N 55°47' W 138°49'0 0.0 992.5 7.1
2015-Jan-21 06:00N 55°47' W 138°49'0 0.2 992.8 7.1
2015-Jan-21 05:00N 55°47' W 138°49'1 0.4 992.9 7.1
2015-Jan-21 03:00N 55°46' W 138°48'0 0.0 994.0 7.1
2015-Jan-21 01:00N 55°46' W 138°48'0 0.2 994.9 7.1
2015-Jan-21 00:00N 55°46' W 138°48'0 0.3 995.9 7.1
2015-Jan-20 23:00N 55°46' W 138°48'0 0.3 997.1 7.1
2015-Jan-20 22:00N 55°46' W 138°48'1 0.6 998.4 7.1
2015-Jan-20 21:00N 55°46' W 138°47'1 0.8 999.2 7.1
2015-Jan-20 20:00N 55°45' W 138°46'2 0.9 999.8 7.1
2015-Jan-20 18:00N 55°44' W 138°49'1 1.3 1000.3 7.1
2015-Jan-20 17:00N 55°43' W 138°48'1 0.2 999.8 7.1
2015-Jan-20 13:00N 55°43' W 138°47'0 0.0 1001.2 7.1
2015-Jan-20 12:00N 55°43' W 138°47'2 0.9 1001.6 7.1
2015-Jan-20 10:00N 55°41' W 138°48'0 0.0 1002.2 7.1
2015-Jan-20 08:00N 55°41' W 138°48'3 2.6 1003.4 7.2
2015-Jan-20 07:00N 55°39' W 138°48'0 0.0 1004.3 7.2
2015-Jan-20 06:00N 55°39' W 138°48'0 0.0 1006.0 7.1
2015-Jan-20 05:00N 55°39' W 138°48'2 1.2 1008.1 7.1
2015-Jan-20 03:00N 55°38' W 138°44'0 0.0 1011.7 7.1
2015-Jan-20 02:00N 55°38' W 138°44'1 0.9 1013.1 7.1
2015-Jan-20 01:00N 55°38' W 138°45'1 1.1 1013.7 7.1
2015-Jan-20 00:00N 55°37' W 138°43'0 0.2 1014.5 7.1
2015-Jan-19 22:00N 55°38' W 138°43'1 0.6 1014.9 7.1
2015-Jan-19 21:00N 55°38' W 138°44'0 0.4 1015.0 7.1
2015-Jan-19 20:00N 55°38' W 138°43'2 1.6 1015.1 7.1
2015-Jan-19 19:00N 55°37' W 138°46'0 0.0 1014.5 7.1
2015-Jan-19 17:00N 55°38' W 138°46'1 0.3 1012.3 7.1
2015-Jan-19 15:00N 55°37' W 138°47'1 0.7 1010.9 7.1
2015-Jan-19 14:00N 55°37' W 138°46'3 1.4 1010.1 7.1
2015-Jan-19 12:00N 55°40' W 138°48'0 0.0 1007.8 7.2
2015-Jan-19 10:00N 55°40' W 138°48'0 0.0 1004.6 7.1
2015-Jan-19 09:00N 55°40' W 138°48'0 0.0 1002.7 7.2
2015-Jan-19 07:00N 55°40' W 138°48'0 0.3 999.0 7.1
2015-Jan-19 06:00N 55°39' W 138°49'1 1.0 996.7 7.1
2015-Jan-19 05:00N 55°40' W 138°49'1 1.0 994.9 7.1
2015-Jan-19 04:00N 55°40' W 138°51'1 1.2 993.5 7.1
2015-Jan-19 03:00N 55°40' W 138°49'1 1.2 992.0 7.2
2015-Jan-19 02:00N 55°41' W 138°50'0 0.4 990.4 7.1
2015-Jan-19 01:00N 55°40' W 138°51'0 0.0 988.9 7.2
2015-Jan-19 00:00N 55°40' W 138°51'1 0.4 987.7 7.2
2015-Jan-18 22:00N 55°40' W 138°50'1 1.4 987.8 7.2
2015-Jan-18 21:00N 55°39' W 138°47'1 0.8 988.0 7.2
2015-Jan-18 20:00N 55°40' W 138°46'0 0.1 987.9 7.2
2015-Jan-18 18:00N 55°40' W 138°46'0 0.0 987.4 7.2
2015-Jan-18 17:00N 55°40' W 138°46'0 0.3 986.9 7.2
2015-Jan-18 16:00N 55°40' W 138°46'0 0.2 986.7 7.2
2015-Jan-18 15:00N 55°40' W 138°47'1 0.6 986.6 7.2
2015-Jan-18 14:00N 55°39' W 138°46'1 0.6 986.7 7.2
2015-Jan-18 12:00N 55°38' W 138°45'0 0.0 988.6 7.2
2015-Jan-18 11:00N 55°38' W 138°45'3 2.6 989.4 7.2
2015-Jan-18 10:00N 55°38' W 138°41'0 0.0 990.0 7.2
2015-Jan-18 07:00N 55°38' W 138°41'0 0.0 992.8 7.2
2015-Jan-18 06:00N 55°38' W 138°41'1 1.0 993.9 7.2
2015-Jan-18 05:00N 55°38' W 138°39'1 0.8 994.8 7.2
2015-Jan-18 04:00N 55°38' W 138°38'1 1.2 995.5 7.2
2015-Jan-18 03:00N 55°38' W 138°36'1 1.4 996.2 7.2
2015-Jan-18 02:00N 55°39' W 138°38'1 0.3 996.5 7.2
2015-Jan-18 00:00N 55°39' W 138°38'1 0.5 997.1 7.2
2015-Jan-17 23:00N 55°39' W 138°38'0 0.3 996.9 7.2
2015-Jan-17 22:00N 55°39' W 138°39'0 0.1 996.9 7.2
2015-Jan-17 20:00N 55°39' W 138°38'1 0.6 996.3 7.2
2015-Jan-17 19:00N 55°39' W 138°37'0 0.3 995.9 7.2
2015-Jan-17 18:00N 55°39' W 138°37'0 0.0 995.1 7.2
2015-Jan-17 16:00N 55°39' W 138°37'1 0.6 994.0 7.2
2015-Jan-17 15:00N 55°39' W 138°37'0 0.5 993.4 7.2
2015-Jan-17 14:00N 55°40' W 138°37'1 0.5 992.8 7.2
2015-Jan-17 13:00N 55°39' W 138°37'1 0.6 992.7 7.2
2015-Jan-17 12:00N 55°39' W 138°38'0 0.4 992.4 7.2
2015-Jan-17 11:00N 55°39' W 138°38'1 0.2 992.0 7.2
2015-Jan-17 06:00N 55°38' W 138°39'0 0.0 988.4 7.2
2015-Jan-17 05:00N 55°38' W 138°39'1 1.0 987.9 7.2
2015-Jan-17 04:00N 55°37' W 138°38'1 1.0 988.3 7.1
2015-Jan-17 03:00N 55°36' W 138°39'0 0.0 989.3 7.1
2015-Jan-17 02:00N 55°36' W 138°39'1 0.5 990.7 7.1
2015-Jan-17 01:00N 55°36' W 138°38'1 1.1 991.4 7.1
2015-Jan-17 00:00N 55°35' W 138°38'1 0.3 992.4 7.1
2015-Jan-16 22:00N 55°36' W 138°39'2 1.5 994.4 7.1
2015-Jan-16 21:00N 55°34' W 138°38'1 0.8 995.0 7.1
2015-Jan-16 20:00N 55°34' W 138°39'0 0.3 995.4 7.1
2015-Jan-16 19:00N 55°34' W 138°39'0 0.0 995.3 7.1
2015-Jan-16 18:00N 55°34' W 138°39'1 1.4 995.3 7.1
2015-Jan-16 17:00N 55°32' W 138°39'0 0.1 995.0 7.2
2015-Jan-16 16:00N 55°32' W 138°39'0 0.2 995.3 7.2
2015-Jan-16 15:00N 55°32' W 138°39'1 0.6 995.9 7.2
2015-Jan-16 14:00N 55°32' W 138°38'   996.8 7.2

Dump ship's entire track history